KNQA/NQA METAR and TAF weather

Enter ICAO airport designator
Station Type Date Time Source
KNQA METAR 2019/12/09 05:55 UTC NOAA

KNQA 090555Z AUTO 17007G13KT 9SM 13/12 A2987 RMK A01


Station Type Date Time Source
KNQA Decoded METAR 2019/12/09 05:55 UTC NOAA

Millington, Millington Municipal Airport, TN, United States (KNQA) 35-21-24N 089-52-13W
Dec 09, 2019 - 12:55 AM EST / 2019.12.09 0555 UTC
Wind: from the S (170 degrees) at 8 MPH (7 KT) gusting to 15 MPH (13 KT):0
Visibility: 9 mile(s):0
Temperature: 55 F (13 C)
Dew Point: 53 F (12 C)
Relative Humidity: 93%
Pressure (altimeter): 29.87 in. Hg (1011 hPa)
ob: KNQA 090555Z AUTO 17007G13KT 9SM 13/12 A2987 RMK A01
cycle: 6

Station Type Date Time Source
KNQA TAF UTC NOAA

Error!

Example: see airport list